Time;durP1;ratioP1;P1;durP2;ratioP2;P2;SDS_P1;SDS_P2;PMS_P1;PMS_P2;Temp;Humidity;BMP_temperature;BMP_pressure;BME280_temperature;BME280_humidity;BME280_pressure;Samples;Min_cycle;Max_cycle;Signal;HPM_P1;HPM_P2
2024/03/09 00:01:29;;;;;;;45.53;25.55;;;5.00;99.90;;;;;;5047245;28;20161;-80
2024/03/09 00:03:56;;;;;;;48.58;27.27;;;5.00;99.90;;;;;;5047817;28;20048;-80
2024/03/09 00:06:21;;;;;;;45.63;25.90;;;4.90;99.90;;;;;;5028922;28;20121;-78
2024/03/09 00:08:48;;;;;;;44.85;26.67;;;5.00;99.90;;;;;;5014930;28;20120;-80
2024/03/09 00:11:14;;;;;;;44.78;26.98;;;5.00;99.90;;;;;;5036200;28;20047;-80
2024/03/09 00:13:40;;;;;;;47.40;26.52;;;5.00;99.90;;;;;;5053329;28;20041;-79
2024/03/09 00:16:07;;;;;;;49.08;26.50;;;5.00;99.90;;;;;;5036332;28;20056;-79
2024/03/09 00:18:33;;;;;;;46.13;25.88;;;4.90;99.90;;;;;;5054172;28;20037;-79
2024/03/09 00:20:58;;;;;;;44.25;25.05;;;4.90;99.90;;;;;;5052818;28;20045;-78
2024/03/09 00:23:26;;;;;;;48.05;26.25;;;5.10;99.90;;;;;;5035499;28;20144;-78
2024/03/09 00:25:52;;;;;;;45.45;25.65;;;4.80;99.90;;;;;;5044947;28;20411;-79
2024/03/09 00:28:18;;;;;;;50.13;26.15;;;4.90;99.90;;;;;;5017287;28;20041;-79
2024/03/09 00:30:44;;;;;;;44.90;26.35;;;4.80;99.90;;;;;;5035769;28;20044;-79
2024/03/09 00:33:10;;;;;;;42.70;25.02;;;4.90;99.90;;;;;;5052955;28;20073;-79
2024/03/09 00:35:36;;;;;;;45.53;25.10;;;4.80;99.90;;;;;;5035959;28;20411;-80
2024/03/09 00:38:03;;;;;;;41.10;23.85;;;4.80;99.90;;;;;;5053847;28;20733;-79
2024/03/09 00:40:29;;;;;;;43.85;24.95;;;4.80;99.90;;;;;;5027929;28;20171;-79
2024/03/09 00:42:59;;;;;;;43.28;24.65;;;4.80;99.90;;;;;;5052832;28;20120;-79
2024/03/09 00:45:25;;;;;;;45.90;23.42;;;4.80;99.90;;;;;;5033410;28;20048;-79
2024/03/09 00:47:51;;;;;;;40.70;23.45;;;4.70;99.90;;;;;;5051358;28;20047;-79
2024/03/09 00:50:17;;;;;;;41.83;24.02;;;4.70;99.90;;;;;;5052064;28;20033;-79
2024/03/09 00:52:44;;;;;;;42.40;24.00;;;4.70;99.90;;;;;;5053236;28;20033;-80
2024/03/09 00:55:15;;;;;;;43.58;23.98;;;4.70;99.90;;;;;;5052760;28;20608;-78
2024/03/09 00:57:45;;;;;;;40.97;23.38;;;4.70;99.90;;;;;;5034788;28;20415;-79
2024/03/09 01:00:15;;;;;;;41.85;23.92;;;4.70;99.90;;;;;;5052578;28;20041;-79
2024/03/09 01:02:43;;;;;;;42.83;23.27;;;4.70;99.90;;;;;;5034999;28;20045;-79
2024/03/09 01:05:09;;;;;;;37.40;21.92;;;4.60;99.90;;;;;;5052567;28;20037;-78
2024/03/09 01:07:37;;;;;;;38.17;22.33;;;4.70;99.90;;;;;;5034011;28;20047;-79
2024/03/09 01:10:06;;;;;;;43.00;23.27;;;4.60;99.90;;;;;;5052852;28;20040;-80
2024/03/09 01:12:33;;;;;;;41.63;23.13;;;4.60;99.90;;;;;;5043199;28;20055;-79
2024/03/09 01:14:59;;;;;;;40.72;22.50;;;4.70;99.90;;;;;;5051725;28;20458;-80
2024/03/09 01:17:26;;;;;;;42.78;23.23;;;4.60;99.90;;;;;;5046057;28;20129;-80
2024/03/09 01:19:52;;;;;;;41.53;22.55;;;4.60;99.90;;;;;;5052077;28;20106;-79
2024/03/09 01:22:19;;;;;;;40.28;23.20;;;5.10;99.90;;;;;;5035196;28;20530;-79
2024/03/09 01:24:45;;;;;;;39.05;23.13;;;4.60;99.90;;;;;;5052764;28;20041;-79
2024/03/09 01:27:11;;;;;;;41.75;22.88;;;4.50;99.90;;;;;;5034957;28;20033;-78
2024/03/09 01:29:37;;;;;;;40.15;21.65;;;4.50;99.90;;;;;;5052031;28;20037;-78
2024/03/09 01:32:05;;;;;;;41.53;21.88;;;4.50;99.90;;;;;;5050865;28;20041;-80
2024/03/09 01:34:31;;;;;;;42.33;21.65;;;4.50;99.90;;;;;;5034820;28;20120;-79
2024/03/09 01:36:57;;;;;;;40.47;21.73;;;4.40;99.90;;;;;;5052359;28;20121;-79
2024/03/09 01:39:23;;;;;;;38.40;21.30;;;4.40;99.90;;;;;;5033975;28;21538;-78
2024/03/09 01:41:50;;;;;;;40.15;21.38;;;4.40;99.90;;;;;;5048432;28;20080;-78
2024/03/09 01:44:16;;;;;;;39.53;22.55;;;4.50;99.90;;;;;;5034135;28;20124;-78
2024/03/09 01:46:42;;;;;;;39.22;21.73;;;4.40;99.90;;;;;;5048523;28;20033;-80
2024/03/09 01:49:08;;;;;;;38.42;22.25;;;4.40;99.90;;;;;;5018208;28;20115;-78
2024/03/09 01:51:35;;;;;;;36.78;20.83;;;4.40;99.90;;;;;;5044914;28;20051;-80
2024/03/09 01:54:10;;;;;;;41.50;22.88;;;4.40;99.90;;;;;;5051930;28;20387;-78
2024/03/09 01:56:38;;;;;;;40.55;21.58;;;4.40;99.90;;;;;;5052374;28;20047;-78
2024/03/09 01:59:07;;;;;;;41.10;20.90;;;4.30;99.90;;;;;;5048156;28;20116;-79
2024/03/09 02:01:36;;;;;;;40.38;21.15;;;4.30;99.90;;;;;;5023246;28;20120;-79
2024/03/09 02:04:04;;;;;;;41.63;21.50;;;4.30;99.90;;;;;;5047135;28;20112;-78
2024/03/09 02:06:32;;;;;;;38.63;20.77;;;4.30;99.90;;;;;;5034502;28;20033;-79
2024/03/09 02:08:58;;;;;;;41.03;21.85;;;4.30;99.90;;;;;;5052194;28;20108;-79
2024/03/09 02:11:30;;;;;;;39.33;21.17;;;4.30;99.90;;;;;;5031740;28;20045;-79
2024/03/09 02:13:59;;;;;;;36.45;21.20;;;4.30;99.90;;;;;;5051180;28;20097;-79
2024/03/09 02:16:24;;;;;;;40.72;21.23;;;4.30;99.90;;;;;;5046940;28;20596;-80
2024/03/09 02:18:51;;;;;;;38.50;21.35;;;4.20;99.90;;;;;;5045446;28;20041;-79
2024/03/09 02:21:18;;;;;;;39.40;21.90;;;4.20;99.90;;;;;;5048240;28;20060;-79
2024/03/09 02:23:47;;;;;;;38.45;21.15;;;4.20;99.90;;;;;;5028781;28;20033;-79
2024/03/09 02:26:16;;;;;;;39.63;22.30;;;4.20;99.90;;;;;;5050367;28;20104;-79
2024/03/09 02:28:53;;;;;;;39.80;21.90;;;4.40;99.90;;;;;;5033708;28;20029;-78
2024/03/09 02:31:23;;;;;;;42.85;22.77;;;4.20;99.90;;;;;;5030767;28;20051;-78
2024/03/09 02:33:52;;;;;;;38.40;21.17;;;4.20;99.90;;;;;;5025492;28;20032;-78
2024/03/09 02:36:29;;;;;;;38.22;21.33;;;4.20;99.90;;;;;;5047455;28;20110;-79
2024/03/09 02:38:56;;;;;;;39.85;21.92;;;4.20;99.90;;;;;;5033859;28;20072;-79
2024/03/09 02:41:25;;;;;;;37.15;20.38;;;4.10;99.90;;;;;;5048471;28;20041;-80
2024/03/09 02:43:53;;;;;;;41.15;22.13;;;4.10;99.90;;;;;;5045561;28;20060;-79
2024/03/09 02:46:21;;;;;;;38.50;21.42;;;4.10;99.90;;;;;;5030261;28;20447;-79
2024/03/09 02:48:50;;;;;;;38.45;21.52;;;4.10;99.90;;;;;;5033357;28;20082;-79
2024/03/09 02:51:17;;;;;;;39.42;21.38;;;4.10;99.90;;;;;;5028851;28;20045;-78
2024/03/09 02:53:46;;;;;;;37.08;20.88;;;4.00;99.90;;;;;;5047957;28;20037;-79
2024/03/09 02:56:16;;;;;;;43.10;22.60;;;4.00;99.90;;;;;;5033082;28;20037;-79
2024/03/09 02:58:42;;;;;;;42.50;21.63;;;4.00;99.90;;;;;;5013099;28;20087;-78
2024/03/09 03:01:10;;;;;;;41.08;22.50;;;4.00;99.90;;;;;;5045841;28;20077;-78
2024/03/09 03:03:47;;;;;;;41.15;22.27;;;4.00;99.90;;;;;;5033198;28;20547;-79
2024/03/09 03:06:20;;;;;;;38.72;20.80;;;4.00;99.90;;;;;;5046372;28;20039;-79
2024/03/09 03:08:48;;;;;;;38.63;21.48;;;4.00;99.90;;;;;;5047699;28;20037;-79
2024/03/09 03:11:18;;;;;;;39.53;21.48;;;4.00;99.90;;;;;;5049251;28;20130;-78
2024/03/09 03:13:45;;;;;;;39.00;21.10;;;4.00;99.90;;;;;;5032164;28;20135;-78
2024/03/09 03:16:19;;;;;;;36.67;20.38;;;3.90;99.90;;;;;;5017193;28;20049;-78
2024/03/09 03:18:48;;;;;;;41.85;21.40;;;3.90;99.90;;;;;;5030095;28;20403;-80
2024/03/09 03:21:14;;;;;;;40.47;22.27;;;3.90;99.90;;;;;;5049691;28;20071;-79
2024/03/09 03:23:41;;;;;;;40.78;21.45;;;3.90;99.90;;;;;;5032260;28;20051;-79
2024/03/09 03:26:09;;;;;;;37.35;21.35;;;3.90;99.90;;;;;;5031724;28;20040;-79
2024/03/09 03:28:36;;;;;;;33.80;20.00;;;3.90;99.90;;;;;;5051011;28;20542;-79
2024/03/09 03:31:04;;;;;;;43.33;21.55;;;3.90;99.90;;;;;;5030081;28;20045;-79
2024/03/09 03:33:32;;;;;;;38.83;21.23;;;3.80;99.90;;;;;;5048343;28;20045;-79
2024/03/09 03:36:01;;;;;;;38.00;21.55;;;3.80;99.90;;;;;;5032953;28;20037;-79
2024/03/09 03:38:27;;;;;;;44.13;22.23;;;3.80;99.90;;;;;;5050668;28;20041;-78
2024/03/09 03:40:53;;;;;;;38.78;21.77;;;3.80;99.90;;;;;;5032420;28;20616;-79
2024/03/09 03:43:18;;;;;;;35.95;20.77;;;3.70;99.90;;;;;;5049762;28;20040;-79
2024/03/09 03:45:44;;;;;;;38.85;21.13;;;5.00;99.90;;;;;;5032730;28;20131;-79
2024/03/09 03:48:15;;;;;;;40.55;21.75;;;3.70;99.90;;;;;;5030508;28;20029;-79
2024/03/09 03:50:42;;;;;;;38.92;22.00;;;3.70;99.90;;;;;;5044025;28;20033;-79
2024/03/09 03:53:07;;;;;;;38.15;21.13;;;3.70;99.90;;;;;;5043397;28;20059;-79
2024/03/09 03:55:33;;;;;;;37.60;20.45;;;3.70;99.90;;;;;;5016650;28;20041;-79
2024/03/09 03:57:58;;;;;;;40.95;22.02;;;3.70;99.90;;;;;;5050426;28;20048;-79
2024/03/09 04:00:24;;;;;;;36.95;21.33;;;3.70;99.90;;;;;;5024236;28;20056;-79
2024/03/09 04:02:50;;;;;;;40.13;22.13;;;3.70;99.90;;;;;;5041300;28;20047;-79
2024/03/09 04:05:16;;;;;;;41.20;22.13;;;3.60;99.90;;;;;;5048408;28;20116;-80
2024/03/09 04:07:45;;;;;;;40.60;21.50;;;3.60;99.90;;;;;;5078428;23;20046;-77
2024/03/09 04:10:14;;;;;;;39.75;22.00;;;3.60;99.90;;;;;;5014962;28;20458;-77
2024/03/09 04:12:42;;;;;;;41.35;22.40;;;3.60;99.90;;;;;;5020245;28;20052;-76
2024/03/09 04:15:09;;;;;;;40.22;21.60;;;4.70;99.90;;;;;;5044805;28;20120;-77
2024/03/09 04:17:38;;;;;;;40.97;21.50;;;5.10;99.90;;;;;;5032842;28;20099;-76
2024/03/09 04:20:07;;;;;;;36.45;21.02;;;3.60;99.90;;;;;;5012899;28;20046;-76
2024/03/09 04:22:35;;;;;;;40.95;22.20;;;3.60;99.90;;;;;;5013144;28;20125;-76
2024/03/09 04:25:01;;;;;;;39.38;22.60;;;4.90;99.90;;;;;;5032277;28;20037;-76
2024/03/09 04:27:30;;;;;;;43.58;22.70;;;4.00;99.90;;;;;;5010605;28;20550;-76
2024/03/09 04:29:57;;;;;;;37.35;21.25;;;4.70;99.90;;;;;;5030811;28;20099;-77
2024/03/09 04:32:28;;;;;;;41.45;21.90;;;5.00;99.90;;;;;;4995140;28;20053;-77
2024/03/09 04:34:57;;;;;;;42.10;21.98;;;3.70;99.90;;;;;;4997875;28;20125;-77
2024/03/09 04:37:27;;;;;;;39.42;21.15;;;4.40;99.90;;;;;;4998125;28;20136;-77
2024/03/09 04:39:58;;;;;;;45.47;21.42;;;3.60;99.90;;;;;;5012452;28;20129;-77
2024/03/09 04:42:25;;;;;;;38.53;21.90;;;3.30;99.90;;;;;;5028199;28;20462;-77
2024/03/09 04:44:54;;;;;;;39.20;21.90;;;4.70;99.90;;;;;;4992133;28;20041;-77
2024/03/09 04:47:20;;;;;;;38.22;20.77;;;3.50;99.90;;;;;;5009035;28;20413;-77
2024/03/09 04:49:47;;;;;;;38.65;21.77;;;4.70;99.90;;;;;;5030115;28;20067;-77
2024/03/09 04:52:13;;;;;;;38.50;22.00;;;3.50;99.90;;;;;;5015765;28;20447;-77
2024/03/09 04:54:45;;;;;;;39.80;22.33;;;4.70;99.90;;;;;;5034182;28;20087;-77
2024/03/09 04:57:17;;;;;;;37.03;21.15;;;3.50;99.90;;;;;;4994760;28;20045;-77
2024/03/09 04:59:43;;;;;;;38.85;22.58;;;3.20;99.90;;;;;;4999652;28;20083;-77
2024/03/09 05:02:10;;;;;;;41.17;22.83;;;4.10;99.90;;;;;;4999635;28;20073;-77
2024/03/09 05:04:36;;;;;;;37.05;20.90;;;2.20;99.90;;;;;;4993447;28;20052;-77
2024/03/09 05:07:05;;;;;;;39.60;21.33;;;4.80;99.90;;;;;;5033005;28;20107;-76
2024/03/09 05:09:31;;;;;;;42.55;21.52;;;3.70;99.90;;;;;;5016118;28;20037;-76
2024/03/09 05:11:59;;;;;;;40.45;22.30;;;4.40;99.90;;;;;;5031732;28;20049;-76
2024/03/09 05:14:25;;;;;;;41.60;22.73;;;4.10;99.90;;;;;;5003026;28;20064;-76
2024/03/09 05:16:51;;;;;;;42.58;23.45;;;3.40;99.90;;;;;;5015419;28;20034;-76
2024/03/09 05:19:19;;;;;;;40.70;22.52;;;3.40;99.90;;;;;;5015278;28;20096;-76
2024/03/09 05:21:45;;;;;;;41.20;21.42;;;4.50;99.90;;;;;;5017015;28;20030;-76
2024/03/09 05:24:11;;;;;;;40.38;22.60;;;3.30;99.90;;;;;;5014499;28;20045;-76
2024/03/09 05:26:42;;;;;;;41.25;22.52;;;4.40;99.90;;;;;;5000432;28;20388;-76
2024/03/09 05:29:11;;;;;;;39.47;22.02;;;3.40;99.90;;;;;;5034385;28;20316;-76
2024/03/09 05:31:37;;;;;;;38.45;21.02;;;4.50;99.90;;;;;;5032158;28;20108;-76
2024/03/09 05:34:09;;;;;;;44.83;22.08;;;4.80;99.90;;;;;;5000871;28;20049;-76
2024/03/09 05:36:35;;;;;;;41.22;21.90;;;4.80;99.90;;;;;;4998833;28;20048;-76
2024/03/09 05:39:01;;;;;;;37.60;20.73;;;4.70;99.90;;;;;;5011042;28;20385;-76
2024/03/09 05:41:27;;;;;;;39.30;21.30;;;3.90;99.90;;;;;;5033593;28;20040;-76
2024/03/09 05:43:53;;;;;;;38.95;21.40;;;4.50;99.90;;;;;;4998019;28;20043;-76
2024/03/09 05:46:19;;;;;;;42.63;22.50;;;4.70;99.90;;;;;;5013955;28;20116;-77
2024/03/09 05:48:45;;;;;;;41.80;22.27;;;4.60;99.90;;;;;;5014965;28;20124;-77
2024/03/09 05:51:16;;;;;;;40.13;23.13;;;3.30;99.90;;;;;;5014555;28;20041;-77
2024/03/09 05:53:42;;;;;;;38.08;21.60;;;4.50;99.90;;;;;;5035720;28;20060;-76
2024/03/09 05:56:11;;;;;;;39.97;21.77;;;4.70;99.90;;;;;;5013299;28;20459;-76
2024/03/09 05:58:37;;;;;;;41.58;23.00;;;4.30;99.90;;;;;;5015069;28;20064;-76
2024/03/09 06:01:03;;;;;;;40.70;22.70;;;4.50;99.90;;;;;;5034829;28;20089;-78
2024/03/09 06:03:29;;;;;;;40.20;22.45;;;3.20;99.90;;;;;;4997696;28;20045;-77
2024/03/09 06:05:55;;;;;;;44.35;24.35;;;3.20;99.90;;;;;;5015015;28;20052;-76
2024/03/09 06:08:21;;;;;;;41.10;22.60;;;3.20;99.90;;;;;;4997807;28;20040;-76
2024/03/09 06:10:50;;;;;;;41.35;22.50;;;4.50;99.90;;;;;;5014017;28;20034;-77
2024/03/09 06:13:19;;;;;;;39.67;22.73;;;4.00;99.90;;;;;;5011924;28;20118;-78
2024/03/09 06:15:48;;;;;;;38.13;21.45;;;3.30;99.90;;;;;;5026936;28;20144;-77
2024/03/09 06:18:16;;;;;;;41.92;22.48;;;3.10;99.90;;;;;;5031616;28;20399;-77
2024/03/09 06:20:43;;;;;;;42.88;23.42;;;4.30;99.90;;;;;;5015010;28;20083;-77
2024/03/09 06:23:09;;;;;;;40.35;22.08;;;4.70;99.90;;;;;;5032957;28;20048;-77
2024/03/09 06:25:34;;;;;;;41.70;22.73;;;3.60;99.90;;;;;;5033480;28;20063;-77
2024/03/09 06:28:16;;;;;;;42.95;22.38;;;4.60;99.90;;;;;;5031799;28;20041;-76
2024/03/09 06:30:45;;;;;;;43.80;22.63;;;3.10;99.90;;;;;;5033115;28;20037;-76
2024/03/09 06:33:11;;;;;;;42.05;23.17;;;4.70;99.90;;;;;;4993030;28;20359;-76
2024/03/09 06:35:40;;;;;;;42.78;23.02;;;4.60;99.90;;;;;;5031266;28;20061;-77
2024/03/09 06:38:08;;;;;;;43.47;23.63;;;4.40;99.90;;;;;;5030337;28;20037;-76
2024/03/09 06:40:36;;;;;;;42.70;22.83;;;3.10;99.90;;;;;;5031440;28;20098;-76
2024/03/09 06:43:06;;;;;;;39.80;22.48;;;4.30;99.90;;;;;;4994655;28;20069;-76
2024/03/09 06:45:33;;;;;;;38.55;22.58;;;3.10;99.90;;;;;;4990611;28;20025;-76
2024/03/09 06:47:59;;;;;;;39.65;23.35;;;3.10;99.90;;;;;;5005760;28;20623;-76
2024/03/09 06:50:31;;;;;;;41.88;23.10;;;4.20;99.90;;;;;;5016197;28;20033;-76
2024/03/09 06:52:58;;;;;;;44.90;24.05;;;4.50;99.90;;;;;;5015401;28;20059;-78
2024/03/09 06:55:29;;;;;;;41.78;22.10;;;3.40;99.90;;;;;;5006310;28;20042;-77
2024/03/09 06:58:01;;;;;;;44.90;24.08;;;3.10;99.90;;;;;;5014708;28;20043;-77
2024/03/09 07:00:31;;;;;;;;;;;3.20;99.90;;;;;;5030345;28;20034;-77
2024/03/09 07:03:04;;;;;;;39.58;21.60;;;1.80;99.90;;;;;;5030473;28;19960;-76
2024/03/09 07:05:31;;;;;;;42.92;23.20;;;4.40;99.90;;;;;;5003674;28;20120;-77
2024/03/09 07:08:01;;;;;;;43.65;23.38;;;3.20;99.90;;;;;;4990784;28;20092;-76
2024/03/09 07:10:28;;;;;;;41.95;22.88;;;3.20;99.90;;;;;;5010604;28;20064;-77
2024/03/09 07:13:00;;;;;;;42.50;23.20;;;4.80;99.90;;;;;;4995795;28;20083;-76
2024/03/09 07:15:28;;;;;;;42.42;23.25;;;3.20;99.90;;;;;;4996135;28;20045;-76
2024/03/09 07:17:54;;;;;;;42.03;23.10;;;4.50;99.90;;;;;;4996215;28;20570;-77
2024/03/09 07:20:27;;;;;;;44.22;23.38;;;4.40;99.90;;;;;;5031394;28;20076;-77
2024/03/09 07:22:58;;;;;;;43.13;23.98;;;3.40;99.90;;;;;;4997267;28;20404;-77
2024/03/09 07:25:25;;;;;;;42.83;23.95;;;4.80;99.90;;;;;;4996488;28;20044;-77
2024/03/09 07:27:52;;;;;;;45.88;24.27;;;3.40;99.90;;;;;;4994046;28;20045;-77
2024/03/09 07:30:18;;;;;;;43.88;24.27;;;4.70;99.90;;;;;;5030647;28;20048;-77
2024/03/09 07:32:49;;;;;;;42.72;24.48;;;5.00;99.90;;;;;;5014629;28;20041;-76
2024/03/09 07:35:18;;;;;;;42.42;23.17;;;3.50;99.90;;;;;;5032756;28;20091;-76
2024/03/09 07:37:52;;;;;;;44.53;23.92;;;3.50;99.90;;;;;;5013354;28;20041;-76
2024/03/09 07:40:23;;;;;;;44.50;23.20;;;3.50;99.90;;;;;;4996377;28;20326;-76
2024/03/09 07:42:49;;;;;;;42.13;23.25;;;3.90;99.90;;;;;;5011478;28;20037;-76
2024/03/09 07:45:16;;;;;;;39.67;23.08;;;4.80;99.90;;;;;;5014167;28;20033;-76
2024/03/09 07:47:45;;;;;;;40.92;22.55;;;4.80;99.90;;;;;;5010547;28;20053;-76
2024/03/09 07:50:16;;;;;;;43.83;23.67;;;4.60;99.90;;;;;;5011197;28;20037;-76
2024/03/09 07:52:52;;;;;;;43.92;23.65;;;3.30;99.90;;;;;;5017528;28;20064;-76
2024/03/09 07:55:20;;;;;;;42.38;23.95;;;3.60;99.90;;;;;;5030941;28;20034;-76
2024/03/09 07:57:47;;;;;;;41.88;22.85;;;3.70;99.90;;;;;;5031883;28;20038;-76
2024/03/09 08:00:17;;;;;;;41.42;24.23;;;4.90;99.90;;;;;;5016524;28;20037;-76
2024/03/09 08:02:46;;;;;;;45.40;23.63;;;3.70;99.90;;;;;;4996401;28;20499;-76
2024/03/09 08:05:17;;;;;;;39.00;21.65;;;5.30;99.90;;;;;;5033073;28;20487;-76
2024/03/09 08:07:44;;;;;;;45.22;23.92;;;3.80;99.90;;;;;;5014913;28;20522;-76
2024/03/09 08:10:17;;;;;;;46.88;24.50;;;5.20;99.90;;;;;;4986252;28;20108;-76
2024/03/09 08:12:43;;;;;;;43.63;24.15;;;3.80;99.90;;;;;;5010353;28;20116;-76
2024/03/09 08:15:11;;;;;;;46.95;26.23;;;3.90;99.90;;;;;;4995818;28;20074;-76
2024/03/09 08:17:38;;;;;;;50.17;26.85;;;3.90;99.90;;;;;;5014783;28;20451;-76
2024/03/09 08:20:07;;;;;;;50.80;27.55;;;4.00;99.90;;;;;;5028434;28;20041;-76
2024/03/09 08:22:34;;;;;;;45.05;26.08;;;4.00;99.90;;;;;;5031389;28;20407;-76
2024/03/09 08:25:06;;;;;;;44.58;25.38;;;4.00;99.90;;;;;;5023453;28;20527;-76
2024/03/09 08:27:37;;;;;;;44.92;25.42;;;4.10;99.90;;;;;;5033553;28;20042;-76
2024/03/09 08:30:04;;;;;;;43.47;25.55;;;4.10;99.90;;;;;;5038541;28;20093;-76
2024/03/09 08:32:30;;;;;;;45.47;25.45;;;4.20;99.90;;;;;;5027030;28;20059;-76
2024/03/09 08:35:06;;;;;;;48.15;25.88;;;4.30;99.90;;;;;;5018436;28;20124;-76
2024/03/09 08:37:31;;;;;;;42.35;24.38;;;4.40;99.90;;;;;;5029438;28;20551;-77
2024/03/09 08:39:57;;;;;;;40.60;23.00;;;5.20;99.90;;;;;;5011209;28;20145;-76
2024/03/09 08:42:23;;;;;;;39.33;22.70;;;4.40;99.90;;;;;;5034261;28;20046;-77
2024/03/09 08:44:49;;;;;;;41.55;23.17;;;4.50;99.90;;;;;;5033681;28;20067;-77
2024/03/09 08:47:15;;;;;;;43.85;23.55;;;4.50;99.90;;;;;;5033945;28;20030;-77
2024/03/09 08:49:42;;;;;;;40.05;23.90;;;4.50;99.90;;;;;;4997537;28;20124;-77
2024/03/09 08:52:13;;;;;;;41.42;23.30;;;4.60;99.90;;;;;;5016370;28;20045;-77
2024/03/09 08:54:41;;;;;;;43.33;24.50;;;4.60;99.90;;;;;;5001835;28;20095;-77
2024/03/09 08:57:11;;;;;;;42.53;24.60;;;4.60;99.90;;;;;;5034528;28;20156;-77
2024/03/09 08:59:41;;;;;;;45.80;23.80;;;5.70;99.90;;;;;;5000519;28;20075;-77
2024/03/09 09:02:07;;;;;;;46.65;23.95;;;4.40;99.90;;;;;;5028629;28;20046;-76
2024/03/09 09:04:35;;;;;;;40.05;23.15;;;6.10;99.90;;;;;;5016249;28;20037;-76
2024/03/09 09:07:04;;;;;;;44.10;24.80;;;4.80;99.90;;;;;;5015000;28;20041;-76
2024/03/09 09:09:31;;;;;;;40.20;23.35;;;4.80;99.90;;;;;;5015865;28;20551;-76
2024/03/09 09:11:57;;;;;;;45.38;24.42;;;5.40;99.90;;;;;;4999433;28;20467;-76
2024/03/09 09:14:24;;;;;;;41.22;24.70;;;4.90;99.90;;;;;;5001598;28;20045;-76
2024/03/09 09:16:53;;;;;;;38.85;23.15;;;6.00;99.90;;;;;;5016174;28;20049;-76
2024/03/09 09:19:22;;;;;;;37.67;22.85;;;5.00;99.90;;;;;;5035091;28;20459;-76
2024/03/09 09:21:51;;;;;;;41.33;23.63;;;5.00;99.90;;;;;;4988025;28;20088;-76
2024/03/09 09:24:17;;;;;;;42.92;23.27;;;5.10;99.90;;;;;;5014158;28;20105;-76
2024/03/09 09:26:43;;;;;;;41.58;24.13;;;6.00;99.90;;;;;;5033383;28;20117;-76
2024/03/09 09:29:10;;;;;;;40.97;23.13;;;5.20;99.90;;;;;;4999224;28;20038;-76
2024/03/09 09:31:37;;;;;;;41.60;22.88;;;5.30;99.90;;;;;;5015439;28;20041;-76
2024/03/09 09:34:03;;;;;;;39.17;23.77;;;6.20;99.90;;;;;;4998860;28;20065;-76
2024/03/09 09:36:29;;;;;;;39.50;22.75;;;5.40;99.90;;;;;;5032602;28;20385;-76
2024/03/09 09:38:58;;;;;;;36.65;23.25;;;6.30;99.90;;;;;;5032294;28;20045;-76
2024/03/09 09:41:27;;;;;;;40.03;23.85;;;6.50;99.90;;;;;;5008110;28;20041;-76
2024/03/09 09:43:58;;;;;;;40.55;24.27;;;6.60;99.90;;;;;;4994793;28;20044;-76
2024/03/09 09:46:26;;;;;;;38.77;24.20;;;5.70;99.90;;;;;;5016979;28;20049;-76
2024/03/09 09:48:55;;;;;;;39.03;22.95;;;5.80;99.90;;;;;;5015334;28;20042;-76
2024/03/09 09:51:28;;;;;;;39.33;24.80;;;6.90;99.90;;;;;;5015810;28;20083;-76
2024/03/09 09:53:54;;;;;;;34.75;22.50;;;7.10;99.90;;;;;;5033769;28;20053;-76
2024/03/09 09:56:20;;;;;;;34.47;22.25;;;6.00;99.90;;;;;;5008468;28;20107;-76
2024/03/09 09:58:48;;;;;;;40.85;23.85;;;7.30;99.90;;;;;;5016484;28;20439;-76
2024/03/09 10:01:20;;;;;;;36.85;23.05;;;7.10;99.90;;;;;;5031315;28;20029;-76
2024/03/09 10:03:47;;;;;;;36.22;21.83;;;6.10;99.90;;;;;;5015659;28;20488;-76
2024/03/09 10:06:25;;;;;;;38.13;22.63;;;7.50;99.90;;;;;;5016731;23;20041;-62
2024/03/09 10:08:53;;;;;;;33.08;21.00;;;6.30;99.90;;;;;;5029468;28;20643;-63
2024/03/09 10:11:20;;;;;;;34.92;21.20;;;6.40;99.90;;;;;;5015005;28;20448;-65
2024/03/09 10:13:46;;;;;;;34.75;21.15;;;6.50;99.90;;;;;;5008431;28;20092;-67
2024/03/09 10:16:16;;;;;;;33.20;20.65;;;6.50;99.90;;;;;;5011213;28;20450;-63
2024/03/09 10:18:47;;;;;;;33.38;20.73;;;6.70;99.90;;;;;;5013961;28;20033;-66
2024/03/09 10:21:14;;;;;;;32.70;21.02;;;6.80;99.90;;;;;;4993296;28;20084;-66
2024/03/09 10:23:40;;;;;;;34.25;20.45;;;6.90;99.90;;;;;;5010092;28;20410;-65
2024/03/09 10:26:09;;;;;;;34.53;20.60;;;7.10;99.90;;;;;;4977470;28;20140;-65
2024/03/09 10:28:37;;;;;;;35.05;21.60;;;7.20;99.90;;;;;;5003751;28;20041;-64
2024/03/09 10:31:04;;;;;;;32.20;20.30;;;7.40;99.90;;;;;;5010609;28;20072;-65
2024/03/09 10:33:36;;;;;;;31.80;20.02;;;7.60;99.90;;;;;;5010837;28;20057;-65
2024/03/09 10:36:03;;;;;;;30.77;19.67;;;7.80;99.90;;;;;;5010866;28;20040;-65
2024/03/09 10:38:30;;;;;;;30.80;20.50;;;7.80;99.90;;;;;;5001338;28;20096;-65
2024/03/09 10:41:04;;;;;;;28.70;19.75;;;7.90;99.90;;;;;;5010618;28;20494;-65
2024/03/09 10:43:32;;;;;;;31.10;20.25;;;7.90;99.90;;;;;;5009894;28;20103;-65
2024/03/09 10:45:59;;;;;;;33.35;20.48;;;8.10;99.90;;;;;;5010655;28;20041;-65
2024/03/09 10:48:29;;;;;;;34.20;20.98;;;8.20;99.90;;;;;;5012335;28;20509;-65
2024/03/09 10:51:06;;;;;;;34.38;20.77;;;8.40;99.90;;;;;;5014109;28;20112;-65
2024/03/09 10:53:48;;;;;;;30.02;19.77;;;8.60;99.90;;;;;;5010838;28;20398;-65
2024/03/09 10:56:21;;;;;;;31.00;20.10;;;8.80;99.90;;;;;;4993954;28;20542;-64
2024/03/09 10:58:50;;;;;;;28.40;19.00;;;8.90;99.90;;;;;;5011199;28;20064;-65
2024/03/09 11:01:21;;;;;;;32.67;20.92;;;9.10;99.90;;;;;;5011110;28;20037;-65
2024/03/09 11:03:51;;;;;;;30.38;19.58;;;9.30;99.90;;;;;;4986210;28;20133;-65
2024/03/09 11:06:18;;;;;;;30.55;20.35;;;9.50;99.90;;;;;;5011023;28;20038;-65
2024/03/09 11:08:55;;;;;;;28.40;19.92;;;9.70;99.90;;;;;;4992905;28;20033;-65
2024/03/09 11:11:22;;;;;;;31.83;19.90;;;10.00;99.90;;;;;;4996352;28;20050;-65
2024/03/09 11:13:48;;;;;;;29.95;20.55;;;10.00;99.90;;;;;;5010978;28;20041;-65
2024/03/09 11:16:17;;;;;;;27.67;19.50;;;10.00;99.90;;;;;;4993012;28;20038;-64
2024/03/09 11:18:55;;;;;;;30.48;19.88;;;10.00;99.90;;;;;;4993921;28;20488;-66
2024/03/09 11:21:40;;;;;;;29.10;20.05;;;9.90;99.90;;;;;;5007434;28;20035;-66
2024/03/09 11:24:11;;;;;;;29.50;20.50;;;9.90;99.90;;;;;;5010050;28;20095;-66
2024/03/09 11:26:53;;;;;;;29.95;20.88;;;9.80;99.90;;;;;;4993033;28;20038;-65
2024/03/09 11:29:29;;;;;;;30.83;21.37;;;9.70;99.90;;;;;;4996460;28;20084;-65
2024/03/09 11:32:01;;;;;;;30.25;21.10;;;9.70;99.90;;;;;;5010429;28;20281;-65
2024/03/09 11:34:28;;;;;;;29.13;21.10;;;9.70;99.90;;;;;;4989233;28;20050;-66
2024/03/09 11:37:00;;;;;;;30.77;21.52;;;9.70;99.90;;;;;;5010688;28;20085;-65
2024/03/09 11:39:33;;;;;;;30.77;21.77;;;9.80;99.90;;;;;;5010267;28;20072;-65
2024/03/09 11:42:11;;;;;;;30.75;22.00;;;9.80;99.90;;;;;;4985252;28;20438;-65
2024/03/09 11:44:38;;;;;;;30.35;21.05;;;9.90;99.90;;;;;;4988574;28;20045;-65
2024/03/09 11:47:04;;;;;;;30.83;22.10;;;10.10;99.90;;;;;;5010753;28;20044;-65
2024/03/09 11:49:39;;;;;;;29.20;21.50;;;10.20;99.90;;;;;;5010389;28;20461;-65
2024/03/09 11:52:07;;;;;;;32.83;21.30;;;10.40;99.90;;;;;;5010746;28;20034;-63
2024/03/09 11:54:35;;;;;;;32.58;21.33;;;10.50;99.90;;;;;;5007760;28;20046;-65
2024/03/09 11:57:00;;;;;;;32.78;22.15;;;10.60;99.90;;;;;;4987125;28;20077;-65
2024/03/09 11:59:26;;;;;;;30.27;21.60;;;10.60;99.90;;;;;;4989131;28;20046;-66
2024/03/09 12:02:00;;;;;;;29.35;20.85;;;10.70;99.90;;;;;;5012606;28;20073;-66
2024/03/09 12:04:26;;;;;;;35.15;21.15;;;10.70;99.90;;;;;;5014479;28;20075;-65
2024/03/09 12:06:53;;;;;;;30.55;20.80;;;10.70;99.90;;;;;;5014033;28;20121;-66
2024/03/09 12:09:18;;;;;;;30.50;20.30;;;10.90;99.90;;;;;;5011857;28;20121;-66
2024/03/09 12:11:45;;;;;;;29.80;21.38;;;11.00;99.90;;;;;;5013981;28;20113;-65
2024/03/09 12:14:12;;;;;;;30.85;21.20;;;11.10;99.90;;;;;;5014155;28;20042;-65
2024/03/09 12:16:39;;;;;;;29.40;21.55;;;11.10;99.90;;;;;;5014263;28;20038;-66
2024/03/09 12:19:06;;;;;;;31.42;21.25;;;11.20;99.90;;;;;;5013877;28;20038;-65
2024/03/09 12:21:35;;;;;;;28.98;20.55;;;11.20;99.90;;;;;;4995527;28;20064;-66
2024/03/09 12:24:01;;;;;;;28.85;21.23;;;11.20;99.90;;;;;;5009927;28;20046;-65
2024/03/09 12:26:28;;;;;;;30.98;21.73;;;11.10;99.90;;;;;;5013819;28;20120;-65
2024/03/09 12:28:57;;;;;;;28.38;20.95;;;10.90;99.90;;;;;;5013820;28;20402;-66
2024/03/09 12:31:25;;;;;;;29.60;20.98;;;10.80;99.90;;;;;;5013156;28;20112;-64
2024/03/09 12:33:52;;;;;;;28.75;20.20;;;10.80;99.90;;;;;;5013781;28;20050;-65
2024/03/09 12:36:18;;;;;;;27.42;20.38;;;10.70;99.90;;;;;;5013071;28;20326;-66
2024/03/09 12:38:44;;;;;;;33.08;20.83;;;10.60;99.90;;;;;;5013521;28;20045;-66
2024/03/09 12:41:31;;;;;;;31.33;20.92;;;10.70;99.90;;;;;;5013210;28;20049;-66